createdAt,value
2019-03-31T00:02:04.918Z,13.20
2019-03-31T00:04:35.882Z,13.20
2019-03-31T00:07:07.201Z,13.20
2019-03-31T00:09:38.060Z,13.10
2019-03-31T00:12:09.836Z,13.10
2019-03-31T00:14:40.845Z,13.00
2019-03-31T00:17:11.868Z,12.90
2019-03-31T00:19:43.046Z,12.90
2019-03-31T00:22:14.039Z,12.90
2019-03-31T00:24:45.050Z,12.90
2019-03-31T00:27:15.991Z,12.80
2019-03-31T00:29:46.933Z,12.80
2019-03-31T00:32:17.922Z,12.80
2019-03-31T00:34:48.956Z,12.80
2019-03-31T00:37:19.891Z,12.80
2019-03-31T00:39:50.899Z,12.90
2019-03-31T00:42:26.183Z,12.90
2019-03-31T00:44:57.196Z,12.90
2019-03-31T00:47:28.275Z,12.80
2019-03-31T00:49:59.253Z,12.80
2019-03-31T00:52:30.387Z,12.80
2019-03-31T00:55:01.479Z,12.80
2019-03-31T00:57:32.366Z,12.70
2019-03-31T01:00:04.009Z,12.70
2019-03-31T01:02:37.835Z,12.70
2019-03-31T01:05:09.116Z,12.60
2019-03-31T01:07:40.096Z,12.40
2019-03-31T01:10:11.388Z,12.50
2019-03-31T01:12:42.719Z,12.50
2019-03-31T01:15:17.385Z,12.50
2019-03-31T01:17:48.783Z,12.50
2019-03-31T01:20:19.831Z,12.50
2019-03-31T01:22:50.760Z,12.50
2019-03-31T01:25:21.959Z,12.40
2019-03-31T01:27:53.564Z,12.40
2019-03-31T01:30:24.670Z,12.40
2019-03-31T01:32:59.950Z,12.40
2019-03-31T01:35:31.252Z,12.30
2019-03-31T01:38:02.200Z,12.30
2019-03-31T01:40:33.110Z,12.30
2019-03-31T01:43:04.102Z,12.20
2019-03-31T01:45:35.116Z,12.20
2019-03-31T01:48:06.210Z,12.20
2019-03-31T01:50:37.144Z,12.10
2019-03-31T01:53:08.068Z,12.10
2019-03-31T01:55:40.548Z,12.10
2019-03-31T01:58:12.677Z,12.00
2019-03-31T02:00:47.157Z,12.00
2019-03-31T02:03:18.219Z,11.90
2019-03-31T02:05:49.083Z,12.00
2019-03-31T02:08:20.148Z,12.00
2019-03-31T02:10:51.075Z,12.00
2019-03-31T02:13:22.171Z,11.90
2019-03-31T02:15:52.993Z,11.80
2019-03-31T02:18:24.033Z,11.60
2019-03-31T02:20:54.989Z,11.60
2019-03-31T02:23:26.010Z,11.60
2019-03-31T02:25:56.923Z,11.60
2019-03-31T02:28:27.932Z,11.50
2019-03-31T02:30:58.990Z,11.50
2019-03-31T02:33:30.049Z,11.50
2019-03-31T02:36:00.889Z,11.40
2019-03-31T02:38:31.791Z,11.40
2019-03-31T02:41:02.875Z,11.40
2019-03-31T02:43:33.858Z,11.30
2019-03-31T02:46:04.844Z,11.30
2019-03-31T02:48:35.815Z,11.30
2019-03-31T02:51:06.859Z,11.30
2019-03-31T02:53:37.946Z,11.30
2019-03-31T02:56:09.341Z,11.30
2019-03-31T02:58:41.024Z,11.20
2019-03-31T03:01:12.705Z,11.20
2019-03-31T03:03:44.557Z,11.10
2019-03-31T03:06:15.934Z,11.10
2019-03-31T03:08:49.790Z,11.10
2019-03-31T03:11:23.137Z,11.00
2019-03-31T03:13:54.395Z,11.00
2019-03-31T03:16:25.450Z,11.00
2019-03-31T03:18:56.639Z,11.00
2019-03-31T03:21:27.639Z,10.90
2019-03-31T03:23:58.595Z,10.90
2019-03-31T03:26:29.590Z,10.90
2019-03-31T03:29:00.531Z,10.90
2019-03-31T03:31:31.451Z,10.90
2019-03-31T03:34:02.372Z,10.90
2019-03-31T03:36:33.315Z,10.90
2019-03-31T03:39:09.816Z,10.80
2019-03-31T03:41:40.729Z,10.80
2019-03-31T03:44:11.654Z,10.70
2019-03-31T03:46:42.611Z,10.50
2019-03-31T03:49:13.694Z,10.50
2019-03-31T03:51:44.725Z,10.50
2019-03-31T03:54:15.612Z,10.40
2019-03-31T03:56:48.674Z,10.40
2019-03-31T03:59:19.716Z,10.20
2019-03-31T04:01:53.617Z,10.10
2019-03-31T04:04:25.854Z,10.00
2019-03-31T04:06:56.770Z,9.90
2019-03-31T04:09:27.784Z,9.90
2019-03-31T04:11:58.719Z,9.90
2019-03-31T04:14:29.686Z,9.80
2019-03-31T04:17:00.613Z,9.80
2019-03-31T04:19:31.608Z,9.60
2019-03-31T04:22:02.542Z,9.60
2019-03-31T04:24:34.118Z,9.60
2019-03-31T04:27:05.083Z,9.50
2019-03-31T04:29:35.992Z,9.40
2019-03-31T04:32:06.801Z,9.30
2019-03-31T04:34:37.700Z,9.20
2019-03-31T04:37:08.534Z,9.20
2019-03-31T04:39:39.394Z,9.20
2019-03-31T04:42:10.251Z,9.20
2019-03-31T04:44:41.072Z,9.30
2019-03-31T04:47:11.908Z,9.30
2019-03-31T04:49:42.807Z,9.40
2019-03-31T04:52:13.655Z,9.40
2019-03-31T04:54:45.009Z,9.40
2019-03-31T04:57:15.882Z,9.40
2019-03-31T04:59:46.703Z,9.30
2019-03-31T05:02:17.462Z,9.50
2019-03-31T05:04:48.248Z,9.50
2019-03-31T05:07:19.148Z,9.50
2019-03-31T05:09:49.960Z,9.50
2019-03-31T05:12:20.988Z,9.50
2019-03-31T05:14:51.797Z,9.70
2019-03-31T05:17:23.114Z,9.60
2019-03-31T05:19:54.418Z,9.60
2019-03-31T05:22:25.752Z,9.60
2019-03-31T05:24:56.886Z,9.50
2019-03-31T05:27:28.214Z,9.50
2019-03-31T05:29:59.667Z,9.50
2019-03-31T05:32:30.878Z,9.60
2019-03-31T05:35:02.145Z,9.60
2019-03-31T05:37:33.391Z,9.50
2019-03-31T05:40:05.233Z,9.50
2019-03-31T05:42:37.748Z,9.50
2019-03-31T05:45:09.259Z,9.50
2019-03-31T05:47:40.409Z,9.50
2019-03-31T05:50:11.809Z,9.50
2019-03-31T05:52:43.257Z,9.60
2019-03-31T05:55:14.551Z,9.70
2019-03-31T05:57:45.701Z,9.70
2019-03-31T06:00:21.450Z,9.80
2019-03-31T06:02:52.733Z,9.80
2019-03-31T06:05:23.953Z,9.70
2019-03-31T06:07:55.486Z,9.80
2019-03-31T06:10:27.044Z,9.80
2019-03-31T06:12:58.538Z,9.80
2019-03-31T06:15:29.954Z,9.80
2019-03-31T06:18:03.898Z,9.80
2019-03-31T06:20:35.258Z,9.80
2019-03-31T06:23:06.593Z,9.80
2019-03-31T06:25:38.290Z,9.90
2019-03-31T06:28:09.866Z,9.90
2019-03-31T06:30:41.132Z,9.90
2019-03-31T06:33:12.816Z,10.00
2019-03-31T06:35:44.502Z,10.10
2019-03-31T06:38:15.859Z,10.10
2019-03-31T06:40:49.915Z,10.10
2019-03-31T06:43:21.282Z,10.20
2019-03-31T06:45:52.540Z,10.20
2019-03-31T06:48:26.255Z,10.40
2019-03-31T06:50:58.714Z,10.40
2019-03-31T06:53:30.126Z,10.50
2019-03-31T06:56:04.514Z,10.60
2019-03-31T06:58:37.521Z,10.60
2019-03-31T07:01:08.775Z,10.50
2019-03-31T07:03:39.952Z,10.40
2019-03-31T07:06:11.350Z,10.50
2019-03-31T07:08:45.689Z,10.60
2019-03-31T07:11:16.901Z,10.60
2019-03-31T07:13:48.301Z,10.60
2019-03-31T07:16:23.021Z,10.80
2019-03-31T07:18:54.109Z,10.80
2019-03-31T07:21:25.399Z,10.70
2019-03-31T07:24:00.189Z,10.60
2019-03-31T07:26:31.947Z,10.70
2019-03-31T07:29:03.436Z,10.80
2019-03-31T07:31:35.160Z,10.80
2019-03-31T07:34:06.336Z,10.80
2019-03-31T07:36:37.682Z,10.80
2019-03-31T07:39:09.327Z,10.70
2019-03-31T07:41:41.265Z,10.80
2019-03-31T07:44:15.329Z,10.80
2019-03-31T07:46:46.128Z,10.80
2019-03-31T07:49:19.452Z,10.80
2019-03-31T07:51:51.821Z,10.80
2019-03-31T07:54:23.174Z,10.80
2019-03-31T07:56:57.650Z,10.80
2019-03-31T07:59:28.908Z,10.80
2019-03-31T08:02:00.215Z,10.80
2019-03-31T08:04:31.504Z,10.90
2019-03-31T08:07:02.922Z,10.90
2019-03-31T08:09:34.308Z,10.90
2019-03-31T08:12:05.406Z,10.90
2019-03-31T08:14:36.480Z,11.00
2019-03-31T08:17:07.849Z,11.00
2019-03-31T08:19:40.933Z,11.10
2019-03-31T08:22:12.553Z,11.10
2019-03-31T08:24:45.655Z,11.20
2019-03-31T08:27:19.444Z,11.20
2019-03-31T08:30:00.141Z,11.30
2019-03-31T08:32:23.623Z,11.30
2019-03-31T08:34:55.819Z,11.20
2019-03-31T08:37:27.105Z,11.30
2019-03-31T08:39:59.549Z,11.30
2019-03-31T08:42:30.916Z,11.30
2019-03-31T08:45:01.934Z,11.40
2019-03-31T08:47:33.202Z,11.50
2019-03-31T08:50:04.980Z,11.50
2019-03-31T08:52:36.131Z,11.60
2019-03-31T08:55:07.820Z,11.70
2019-03-31T08:57:38.978Z,11.70
2019-03-31T09:00:16.111Z,11.60
2019-03-31T09:02:47.500Z,11.60
2019-03-31T09:05:18.596Z,11.60
2019-03-31T09:07:49.892Z,11.60
2019-03-31T09:10:22.875Z,11.50
2019-03-31T09:12:54.253Z,11.50
2019-03-31T09:15:25.570Z,11.50
2019-03-31T09:17:57.105Z,11.50
2019-03-31T09:20:31.038Z,11.50
2019-03-31T09:23:05.457Z,11.40
2019-03-31T09:25:37.227Z,11.50
2019-03-31T09:28:08.944Z,11.40
2019-03-31T09:30:40.547Z,11.50
2019-03-31T09:33:11.919Z,11.30
2019-03-31T09:35:43.505Z,11.40
2019-03-31T09:38:14.985Z,11.60
2019-03-31T09:40:46.185Z,11.70
2019-03-31T09:43:17.878Z,11.70
2019-03-31T09:45:49.473Z,11.70
2019-03-31T09:48:21.073Z,11.90
2019-03-31T09:50:52.659Z,12.10
2019-03-31T09:53:23.965Z,12.20
2019-03-31T09:55:55.468Z,12.40
2019-03-31T09:58:27.102Z,12.50
2019-03-31T10:00:58.624Z,12.60
2019-03-31T10:03:30.188Z,12.60
2019-03-31T10:06:10.809Z,12.70
2019-03-31T10:08:34.958Z,12.70
2019-03-31T10:11:06.660Z,12.70
2019-03-31T10:13:37.926Z,12.60
2019-03-31T10:16:09.369Z,12.60
2019-03-31T10:18:40.819Z,12.60
2019-03-31T10:21:14.106Z,12.60
2019-03-31T10:23:45.437Z,12.70
2019-03-31T10:26:30.960Z,12.80
2019-03-31T10:28:49.867Z,12.90
2019-03-31T10:31:23.772Z,13.20
2019-03-31T10:33:55.249Z,13.20
2019-03-31T10:36:28.051Z,13.40
2019-03-31T10:38:59.211Z,13.60
2019-03-31T10:41:31.089Z,13.80
2019-03-31T10:44:02.342Z,14.00
2019-03-31T10:46:33.527Z,13.70
2019-03-31T10:49:05.203Z,13.80
2019-03-31T10:51:39.544Z,13.80
2019-03-31T10:54:16.755Z,13.80
2019-03-31T10:56:51.843Z,13.70
2019-03-31T10:59:26.843Z,14.20
2019-03-31T11:01:57.854Z,14.50
2019-03-31T11:04:32.844Z,14.60
2019-03-31T11:07:04.066Z,14.50
2019-03-31T11:09:35.394Z,14.50
2019-03-31T11:12:06.579Z,14.90
2019-03-31T11:14:37.873Z,15.10
2019-03-31T11:17:09.077Z,15.30
2019-03-31T11:19:40.750Z,15.30
2019-03-31T11:22:27.744Z,15.50
2019-03-31T11:24:59.044Z,15.70
2019-03-31T11:27:30.235Z,15.60
2019-03-31T11:30:03.715Z,15.70
2019-03-31T11:32:35.360Z,15.60
2019-03-31T11:35:07.030Z,15.60
2019-03-31T11:37:38.360Z,15.70
2019-03-31T11:40:09.930Z,15.80
2019-03-31T11:42:44.800Z,15.90
2019-03-31T11:45:16.354Z,15.90
2019-03-31T11:47:49.150Z,15.90
2019-03-31T11:50:20.740Z,16.10
2019-03-31T11:52:51.844Z,16.30
2019-03-31T11:55:22.949Z,16.30
2019-03-31T11:57:54.274Z,16.40
2019-03-31T12:00:26.005Z,16.30
2019-03-31T12:02:59.791Z,16.30
2019-03-31T12:05:30.961Z,16.30
2019-03-31T12:08:02.104Z,16.50
2019-03-31T12:10:33.369Z,16.60
2019-03-31T12:13:07.165Z,16.50
2019-03-31T12:15:38.359Z,16.50
2019-03-31T12:18:09.516Z,16.30
2019-03-31T12:20:40.867Z,16.30
2019-03-31T12:23:12.162Z,16.30
2019-03-31T12:25:45.003Z,16.40
2019-03-31T12:28:16.050Z,16.50
2019-03-31T12:30:47.109Z,16.40
2019-03-31T12:33:18.329Z,16.50
2019-03-31T12:35:49.514Z,16.60
2019-03-31T12:38:20.765Z,16.70
2019-03-31T12:40:51.860Z,16.80
2019-03-31T12:43:23.019Z,16.70
2019-03-31T12:45:54.387Z,16.80
2019-03-31T12:48:25.917Z,16.90
2019-03-31T12:50:57.121Z,16.70
2019-03-31T12:53:28.381Z,16.70
2019-03-31T12:56:00.689Z,16.70
2019-03-31T12:58:32.144Z,16.70
2019-03-31T13:01:06.325Z,16.80
2019-03-31T13:03:40.222Z,16.50
2019-03-31T13:06:11.402Z,16.60
2019-03-31T13:08:42.737Z,16.60
2019-03-31T13:11:14.326Z,16.80
2019-03-31T13:13:45.524Z,16.80
2019-03-31T13:16:16.984Z,16.90
2019-03-31T13:18:48.242Z,16.90
2019-03-31T13:21:19.637Z,17.00
2019-03-31T13:23:50.892Z,16.90
2019-03-31T13:26:22.121Z,16.90
2019-03-31T13:28:53.490Z,16.90
2019-03-31T13:31:24.582Z,16.80
2019-03-31T13:33:56.025Z,16.60
2019-03-31T13:36:27.335Z,16.60
2019-03-31T13:38:58.427Z,16.50
2019-03-31T13:41:29.631Z,16.50
2019-03-31T13:44:01.017Z,16.50
2019-03-31T13:46:32.193Z,16.70
2019-03-31T13:49:03.477Z,16.50
2019-03-31T13:51:34.618Z,16.50
2019-03-31T13:54:05.805Z,16.50
2019-03-31T13:56:37.286Z,16.50
2019-03-31T13:59:09.234Z,16.60
2019-03-31T14:01:43.441Z,16.60
2019-03-31T14:04:14.792Z,16.60
2019-03-31T14:06:47.660Z,16.50
2019-03-31T14:09:18.749Z,16.50
2019-03-31T14:11:50.161Z,16.40
2019-03-31T14:14:21.219Z,16.40
2019-03-31T14:16:52.069Z,16.50
2019-03-31T14:19:23.298Z,16.60
2019-03-31T14:21:54.496Z,16.30
2019-03-31T14:24:27.075Z,16.30
2019-03-31T14:26:58.305Z,16.20
2019-03-31T14:29:29.504Z,16.40
2019-03-31T14:32:00.450Z,16.60
2019-03-31T14:34:31.651Z,16.70
2019-03-31T14:37:02.806Z,16.70
2019-03-31T14:39:33.819Z,16.60
2019-03-31T14:42:07.089Z,16.50
2019-03-31T14:44:38.237Z,16.50
2019-03-31T14:47:09.389Z,16.50
2019-03-31T14:49:40.420Z,16.70
2019-03-31T14:52:11.485Z,16.60
2019-03-31T14:54:42.706Z,16.60
2019-03-31T14:57:14.018Z,16.50
2019-03-31T14:59:45.448Z,16.60
2019-03-31T15:02:16.770Z,16.70
2019-03-31T15:04:47.862Z,16.70
2019-03-31T15:07:18.856Z,16.50
2019-03-31T15:09:50.172Z,16.60
2019-03-31T15:12:25.826Z,16.60
2019-03-31T15:14:58.866Z,16.60
2019-03-31T15:17:30.095Z,16.60
2019-03-31T15:20:01.133Z,16.60
2019-03-31T15:22:32.363Z,16.60
2019-03-31T15:25:06.327Z,16.60
2019-03-31T15:27:37.755Z,16.50
2019-03-31T15:30:09.551Z,16.60
2019-03-31T15:32:41.042Z,16.50
2019-03-31T15:35:12.180Z,16.10
2019-03-31T15:37:43.499Z,16.20
2019-03-31T15:40:14.899Z,16.20
2019-03-31T15:42:46.115Z,16.10
2019-03-31T15:45:17.239Z,16.40
2019-03-31T15:47:49.429Z,16.30
2019-03-31T15:50:21.660Z,16.40
2019-03-31T15:52:55.973Z,16.50
2019-03-31T15:55:33.501Z,16.40
2019-03-31T15:58:05.491Z,16.30
2019-03-31T16:00:38.565Z,16.40
2019-03-31T16:03:09.761Z,16.30
2019-03-31T16:05:41.083Z,16.40
2019-03-31T16:08:11.952Z,16.10
2019-03-31T16:10:42.865Z,16.30
2019-03-31T16:13:13.466Z,16.30
2019-03-31T16:15:44.460Z,16.30
2019-03-31T16:18:15.616Z,16.50
2019-03-31T16:20:46.364Z,16.20
2019-03-31T16:23:17.161Z,16.20
2019-03-31T16:25:53.042Z,16.10
2019-03-31T16:28:23.722Z,16.10
2019-03-31T16:30:57.632Z,16.20
2019-03-31T16:33:28.538Z,16.10
2019-03-31T16:35:59.402Z,16.10
2019-03-31T16:38:30.976Z,16.00
2019-03-31T16:41:01.926Z,16.00
2019-03-31T16:43:34.475Z,15.90
2019-03-31T16:46:05.285Z,15.80
2019-03-31T16:48:36.005Z,15.70
2019-03-31T16:51:06.799Z,15.50
2019-03-31T16:53:37.287Z,15.60
2019-03-31T16:56:08.093Z,15.40
2019-03-31T16:58:38.941Z,15.30
2019-03-31T17:01:09.773Z,15.10
2019-03-31T17:03:40.902Z,15.10
2019-03-31T17:06:11.735Z,15.00
2019-03-31T17:08:42.149Z,14.90
2019-03-31T17:11:13.576Z,14.70
2019-03-31T17:13:44.503Z,14.70
2019-03-31T17:16:15.624Z,14.70
2019-03-31T17:18:49.537Z,14.60
2019-03-31T17:21:20.387Z,14.60
2019-03-31T17:23:51.301Z,14.50
2019-03-31T17:26:22.172Z,14.30
2019-03-31T17:28:53.250Z,14.30
2019-03-31T17:31:26.767Z,14.20
2019-03-31T17:33:57.660Z,14.10
2019-03-31T17:36:29.120Z,14.00
2019-03-31T17:39:01.253Z,13.90
2019-03-31T17:41:31.789Z,13.80
2019-03-31T17:44:02.203Z,13.80
2019-03-31T17:46:32.785Z,13.60
2019-03-31T17:49:03.396Z,13.60
2019-03-31T17:51:34.013Z,13.40
2019-03-31T17:54:06.167Z,13.30
2019-03-31T17:56:36.858Z,13.20
2019-03-31T17:59:09.664Z,13.20
2019-03-31T18:01:44.945Z,13.00
2019-03-31T18:04:14.418Z,12.90
2019-03-31T18:06:47.460Z,12.80
2019-03-31T18:09:17.828Z,12.80
2019-03-31T18:11:48.138Z,12.70
2019-03-31T18:14:21.637Z,12.70
2019-03-31T18:16:53.050Z,12.60
2019-03-31T18:19:23.665Z,12.50
2019-03-31T18:21:53.971Z,12.40
2019-03-31T18:24:24.357Z,12.30
2019-03-31T18:26:54.981Z,12.30
2019-03-31T18:29:25.341Z,12.20
2019-03-31T18:31:55.713Z,12.20
2019-03-31T18:34:26.218Z,12.10
2019-03-31T18:36:56.595Z,11.90
2019-03-31T18:39:27.198Z,12.00
2019-03-31T18:41:57.722Z,11.90
2019-03-31T18:44:28.300Z,11.70
2019-03-31T18:46:59.104Z,11.70
2019-03-31T18:49:29.661Z,11.70
2019-03-31T18:52:00.298Z,11.60
2019-03-31T18:54:48.290Z,11.50
2019-03-31T18:57:30.799Z,11.50
2019-03-31T19:00:17.077Z,11.40
2019-03-31T19:03:06.959Z,11.30
2019-03-31T19:05:55.678Z,11.20
2019-03-31T19:08:43.749Z,11.10
2019-03-31T19:11:31.073Z,11.00
2019-03-31T19:14:20.796Z,10.90
2019-03-31T19:17:10.566Z,10.70
2019-03-31T19:19:47.561Z,10.70
2019-03-31T19:22:49.300Z,10.70
2019-03-31T19:25:50.947Z,10.50
2019-03-31T19:28:39.211Z,10.40
2019-03-31T19:31:27.197Z,10.40
2019-03-31T19:34:23.099Z,10.40
2019-03-31T19:37:30.596Z,10.30
2019-03-31T19:40:29.089Z,10.20
2019-03-31T19:43:12.676Z,10.20
2019-03-31T19:46:08.022Z,10.10
2019-03-31T19:48:43.612Z,10.10
2019-03-31T19:51:31.492Z,10.00
2019-03-31T19:54:23.881Z,10.00
2019-03-31T19:57:17.649Z,9.90
2019-03-31T20:00:13.839Z,9.90
2019-03-31T20:02:55.823Z,9.90
2019-03-31T20:05:45.220Z,9.80
2019-03-31T20:08:49.574Z,9.70
2019-03-31T20:11:42.484Z,9.70
2019-03-31T20:14:42.272Z,9.70
2019-03-31T20:17:30.369Z,9.60
2019-03-31T20:20:18.322Z,9.50
2019-03-31T20:23:05.676Z,9.40
2019-03-31T20:25:53.942Z,9.40
2019-03-31T20:28:43.400Z,9.40
2019-03-31T20:31:52.978Z,9.30
2019-03-31T20:34:45.172Z,9.10
2019-03-31T20:37:43.644Z,9.10
2019-03-31T20:40:36.137Z,9.10
2019-03-31T20:43:40.329Z,9.00
2019-03-31T20:46:16.476Z,8.80
2019-03-31T20:48:47.283Z,8.80
2019-03-31T20:51:17.979Z,8.80
2019-03-31T20:53:48.863Z,8.80
2019-03-31T20:56:19.431Z,8.80
2019-03-31T20:58:49.839Z,8.80
2019-03-31T21:01:20.545Z,8.70
2019-03-31T21:03:51.177Z,8.70
2019-03-31T21:06:21.688Z,8.70
2019-03-31T21:08:55.778Z,8.60
2019-03-31T21:11:26.395Z,8.60
2019-03-31T21:13:57.386Z,8.50
2019-03-31T21:16:28.083Z,8.50
2019-03-31T21:18:59.860Z,8.40
2019-03-31T21:21:30.714Z,8.40
2019-03-31T21:24:01.335Z,8.30
2019-03-31T21:26:36.567Z,8.30
2019-03-31T21:29:09.544Z,8.30
2019-03-31T21:31:41.274Z,8.20
2019-03-31T21:34:12.193Z,8.20
2019-03-31T21:36:43.407Z,8.10
2019-03-31T21:39:14.500Z,8.10
2019-03-31T21:41:45.254Z,8.20
2019-03-31T21:44:17.338Z,8.10
2019-03-31T21:46:48.086Z,8.00
2019-03-31T21:49:18.796Z,8.10
2019-03-31T21:51:49.300Z,7.90
2019-03-31T21:54:20.160Z,7.90
2019-03-31T21:56:50.669Z,7.80
2019-03-31T21:59:23.230Z,7.80
2019-03-31T22:01:53.606Z,7.70
2019-03-31T22:04:24.051Z,7.70
2019-03-31T22:06:54.524Z,7.60
2019-03-31T22:09:28.761Z,7.60
2019-03-31T22:12:01.246Z,7.50
2019-03-31T22:14:31.810Z,7.50
2019-03-31T22:17:02.597Z,7.50
2019-03-31T22:19:33.334Z,7.50
2019-03-31T22:22:03.823Z,7.40
2019-03-31T22:24:34.375Z,7.40
2019-03-31T22:27:05.172Z,7.30
2019-03-31T22:29:36.422Z,7.30
2019-03-31T22:32:07.054Z,7.20
2019-03-31T22:34:39.647Z,7.20
2019-03-31T22:37:10.170Z,7.20
2019-03-31T22:39:40.799Z,7.10
2019-03-31T22:42:11.572Z,7.00
2019-03-31T22:44:42.430Z,7.10
2019-03-31T22:47:13.025Z,7.00
2019-03-31T22:49:45.460Z,6.90
2019-03-31T22:52:15.968Z,7.00
2019-03-31T22:54:49.695Z,7.00
2019-03-31T22:57:22.086Z,7.00
2019-03-31T22:59:52.808Z,7.00
2019-03-31T23:02:24.074Z,7.00
2019-03-31T23:04:56.800Z,7.00
2019-03-31T23:07:27.382Z,7.00
2019-03-31T23:09:58.102Z,6.90
2019-03-31T23:12:29.110Z,6.80
2019-03-31T23:15:00.817Z,6.80
2019-03-31T23:17:31.735Z,6.80
2019-03-31T23:20:02.674Z,6.70
2019-03-31T23:22:33.550Z,6.60
2019-03-31T23:25:05.645Z,6.50
2019-03-31T23:27:36.026Z,6.40
2019-03-31T23:30:09.427Z,6.40
2019-03-31T23:32:39.943Z,6.30
2019-03-31T23:35:12.623Z,6.20
2019-03-31T23:37:43.887Z,6.20
2019-03-31T23:40:14.369Z,6.20
2019-03-31T23:42:44.791Z,6.20
2019-03-31T23:45:15.367Z,6.10
2019-03-31T23:47:45.890Z,6.10
2019-03-31T23:50:16.679Z,6.10
2019-03-31T23:52:47.345Z,6.10
2019-03-31T23:55:18.057Z,5.90
2019-03-31T23:57:48.644Z,5.90
